METAR Data
IDs: Format: Raw Decoded Include TAF

Data at: 0019 UTC 05 Jul 2022

EDDB 042350Z 26003KT CAVOK 16/08 Q1018 NOSIG

TAF EDDB 042300Z 0500/0524 32004KT CAVOK
  BECMG 0506/0508 30009KT


EDDF 042350Z 36005KT CAVOK 16/09 Q1020 NOSIG

TAF EDDF 042300Z 0500/0606 VRB03KT CAVOK
  BECMG 0509/0512 30009KT
  BECMG 0521/0524 30004KT


EDDM 042350Z AUTO 21003KT 160V240 9999 -SHRA FEW///TCU 17/16 Q1020 RESHRA NOSIG

TAF EDDM 042300Z 0500/0606 24004KT 9999 FEW030
  PROB30
  TEMPO 0500/0502 SHRA FEW010 BKN030CB
  BECMG 0508/0510 30008KT
  BECMG 0518/0520 26003KT


EDDV 042350Z AUTO VRB02KT CAVOK 13/11 Q1020

TAF EDDV 042300Z 0500/0524 VRB02KT CAVOK
  BECMG 0504/0507 26005KT
  BECMG 0507/0510 28010KT
  BECMG 0518/0520 31005KT


EDDW 042350Z AUTO VRB02KT CAVOK 12/10 Q1020

TAF EDDW 042300Z 0500/0524 25003KT CAVOK
  BECMG 0507/0510 27010KT
  PROB30
  TEMPO 0514/0517 29015KT
  BECMG 0519/0522 28005KT


EDDL 042350Z AUTO 34005KT CAVOK 16/11 Q1021 NOSIG

TAF EDDL 042300Z 0500/0606 VRB03KT 9999 SCT040
  BECMG 0506/0509 28005KT
  BECMG 0512/0515 31010KT
  BECMG 0520/0523 30004KT


EDDK 042350Z AUTO VRB02KT CAVOK 13/10 Q1021 NOSIG

TAF EDDK 042300Z 0500/0606 VRB03KT 9999 SCT040
  BECMG 0506/0509 31005KT
  BECMG 0511/0514 32011KT
  BECMG 0520/0523 32005KT


EDDS 042350Z AUTO VRB02KT CAVOK 17/12 Q1020

TAF EDDS 042300Z 0500/0524 VRB03KT CAVOK
  BECMG 0508/0510 32006KT


EDDC 042350Z AUTO VRB02KT CAVOK 17/09 Q1019

TAF EDDC 042300Z 0500/0524 33005KT CAVOK

EDVE 042350Z AUTO 00000KT 9999 NCD 15/11 Q1020

TAF EDVE 041700Z 0418/0421 29005KT CAVOK